sensor_id;sensor_type;location;lat;lon;timestamp;pressure;altitude;pressure_sealevel;temperature;humidity
48636;BME280;34429;52.332;5.614;2022-11-27T00:01:51;102430.84;;;6.75;100.00
48636;BME280;34429;52.332;5.614;2022-11-27T00:04:22;102425.34;;;6.78;100.00
48636;BME280;34429;52.332;5.614;2022-11-27T00:06:51;102417.34;;;6.78;100.00
48636;BME280;34429;52.332;5.614;2022-11-27T00:09:19;102422.13;;;6.72;100.00
48636;BME280;34429;52.332;5.614;2022-11-27T00:11:47;102412.66;;;6.64;100.00
48636;BME280;34429;52.332;5.614;2022-11-27T00:14:16;102411.06;;;6.60;100.00
48636;BME280;34429;52.332;5.614;2022-11-27T00:16:44;102416.53;;;6.57;100.00
48636;BME280;34429;52.332;5.614;2022-11-27T00:19:13;102403.53;;;6.69;100.00
48636;BME280;34429;52.332;5.614;2022-11-27T00:21:44;102399.19;;;6.66;100.00
48636;BME280;34429;52.332;5.614;2022-11-27T00:24:12;102395.59;;;6.67;100.00
48636;BME280;34429;52.332;5.614;2022-11-27T00:26:40;102389.28;;;6.68;100.00
48636;BME280;34429;52.332;5.614;2022-11-27T00:29:11;102385.97;;;6.63;100.00
48636;BME280;34429;52.332;5.614;2022-11-27T00:31:39;102387.91;;;6.59;100.00
48636;BME280;34429;52.332;5.614;2022-11-27T00:34:09;102374.38;;;6.62;100.00
48636;BME280;34429;52.332;5.614;2022-11-27T00:36:37;102381.47;;;6.63;100.00
48636;BME280;34429;52.332;5.614;2022-11-27T00:39:08;102375.91;;;6.68;100.00
48636;BME280;34429;52.332;5.614;2022-11-27T00:41:37;102369.53;;;6.71;100.00
48636;BME280;34429;52.332;5.614;2022-11-27T00:44:06;102368.25;;;6.60;100.00
48636;BME280;34429;52.332;5.614;2022-11-27T00:46:34;102366.34;;;6.62;100.00
48636;BME280;34429;52.332;5.614;2022-11-27T00:49:05;102370.13;;;6.58;100.00
48636;BME280;34429;52.332;5.614;2022-11-27T00:51:34;102377.44;;;6.55;100.00
48636;BME280;34429;52.332;5.614;2022-11-27T00:54:03;102372.59;;;6.63;100.00
48636;BME280;34429;52.332;5.614;2022-11-27T00:56:35;102368.84;;;6.48;100.00
48636;BME280;34429;52.332;5.614;2022-11-27T00:59:05;102364.50;;;6.64;100.00
48636;BME280;34429;52.332;5.614;2022-11-27T01:01:37;102366.50;;;6.59;100.00
48636;BME280;34429;52.332;5.614;2022-11-27T01:04:07;102365.78;;;6.56;100.00
48636;BME280;34429;52.332;5.614;2022-11-27T01:06:39;102371.44;;;6.49;100.00
48636;BME280;34429;52.332;5.614;2022-11-27T01:09:09;102375.34;;;6.61;100.00
48636;BME280;34429;52.332;5.614;2022-11-27T01:11:41;102375.34;;;6.61;100.00
48636;BME280;34429;52.332;5.614;2022-11-27T01:14:12;102377.34;;;6.56;100.00
48636;BME280;34429;52.332;5.614;2022-11-27T01:16:41;102374.59;;;6.58;100.00
48636;BME280;34429;52.332;5.614;2022-11-27T01:19:11;102378.78;;;6.63;100.00
48636;BME280;34429;52.332;5.614;2022-11-27T01:21:41;102369.75;;;6.66;100.00
48636;BME280;34429;52.332;5.614;2022-11-27T01:24:11;102348.72;;;6.58;100.00
48636;BME280;34429;52.332;5.614;2022-11-27T01:26:43;102348.88;;;6.55;100.00
48636;BME280;34429;52.332;5.614;2022-11-27T01:29:11;102334.91;;;6.48;100.00
48636;BME280;34429;52.332;5.614;2022-11-27T01:31:40;102339.56;;;6.45;100.00
48636;BME280;34429;52.332;5.614;2022-11-27T01:34:13;102338.09;;;6.57;100.00
48636;BME280;34429;52.332;5.614;2022-11-27T01:36:42;102334.00;;;6.49;100.00
48636;BME280;34429;52.332;5.614;2022-11-27T01:39:14;102338.31;;;6.52;100.00
48636;BME280;34429;52.332;5.614;2022-11-27T01:41:46;102345.09;;;6.59;100.00
48636;BME280;34429;52.332;5.614;2022-11-27T01:44:46;102336.28;;;6.57;100.00
48636;BME280;34429;52.332;5.614;2022-11-27T01:47:23;102324.59;;;6.60;100.00
48636;BME280;34429;52.332;5.614;2022-11-27T01:49:57;102324.66;;;6.58;100.00
48636;BME280;34429;52.332;5.614;2022-11-27T01:52:32;102310.53;;;6.55;100.00
48636;BME280;34429;52.332;5.614;2022-11-27T01:55:05;102297.47;;;6.48;100.00
48636;BME280;34429;52.332;5.614;2022-11-27T01:57:39;102286.53;;;6.53;100.00
48636;BME280;34429;52.332;5.614;2022-11-27T02:00:14;102283.09;;;6.51;100.00
48636;BME280;34429;52.332;5.614;2022-11-27T02:02:44;102285.09;;;6.46;100.00
48636;BME280;34429;52.332;5.614;2022-11-27T02:05:15;102267.66;;;6.56;100.00
48636;BME280;34429;52.332;5.614;2022-11-27T02:07:44;102267.19;;;6.48;100.00
48636;BME280;34429;52.332;5.614;2022-11-27T02:10:13;102255.63;;;6.47;100.00
48636;BME280;34429;52.332;5.614;2022-11-27T02:12:48;102259.94;;;6.50;100.00
48636;BME280;34429;52.332;5.614;2022-11-27T02:15:22;102259.78;;;6.53;100.00
48636;BME280;34429;52.332;5.614;2022-11-27T02:18:01;102245.19;;;6.60;100.00
48636;BME280;34429;52.332;5.614;2022-11-27T02:20:39;102244.47;;;6.57;100.00
48636;BME280;34429;52.332;5.614;2022-11-27T02:23:51;102246.13;;;6.59;100.00
48636;BME280;34429;52.332;5.614;2022-11-27T02:26:44;102236.22;;;6.61;100.00
48636;BME280;34429;52.332;5.614;2022-11-27T02:29:22;102230.22;;;6.56;100.00
48636;BME280;34429;52.332;5.614;2022-11-27T02:31:56;102231.97;;;6.57;100.00
48636;BME280;34429;52.332;5.614;2022-11-27T02:34:29;102225.97;;;6.52;100.00
48636;BME280;34429;52.332;5.614;2022-11-27T02:37:08;102228.50;;;6.55;100.00
48636;BME280;34429;52.332;5.614;2022-11-27T02:39:55;102239.69;;;6.63;100.00
48636;BME280;34429;52.332;5.614;2022-11-27T02:42:29;102234.47;;;6.60;100.00
48636;BME280;34429;52.332;5.614;2022-11-27T02:45:05;102243.28;;;6.62;100.00
48636;BME280;34429;52.332;5.614;2022-11-27T02:47:37;102238.66;;;6.66;100.00
48636;BME280;34429;52.332;5.614;2022-11-27T02:50:09;102242.19;;;6.66;100.00
48636;BME280;34429;52.332;5.614;2022-11-27T02:52:40;102241.09;;;6.71;100.00
48636;BME280;34429;52.332;5.614;2022-11-27T02:55:12;102251.03;;;6.69;100.00
48636;BME280;34429;52.332;5.614;2022-11-27T02:57:43;102254.56;;;6.69;100.00
48636;BME280;34429;52.332;5.614;2022-11-27T03:00:16;102255.13;;;6.76;100.00
48636;BME280;34429;52.332;5.614;2022-11-27T03:02:49;102246.22;;;6.75;100.00
48636;BME280;34429;52.332;5.614;2022-11-27T03:05:19;102235.50;;;6.75;100.00
48636;BME280;34429;52.332;5.614;2022-11-27T03:07:52;102234.44;;;6.79;100.00
48636;BME280;34429;52.332;5.614;2022-11-27T03:10:25;102220.88;;;6.82;100.00
48636;BME280;34429;52.332;5.614;2022-11-27T03:12:57;102220.56;;;6.71;100.00
48636;BME280;34429;52.332;5.614;2022-11-27T03:15:35;102216.78;;;6.75;100.00
48636;BME280;34429;52.332;5.614;2022-11-27T03:18:11;102222.38;;;6.71;100.00
48636;BME280;34429;52.332;5.614;2022-11-27T03:20:46;102211.06;;;6.65;100.00
48636;BME280;34429;52.332;5.614;2022-11-27T03:23:17;102209.31;;;6.82;100.00
48636;BME280;34429;52.332;5.614;2022-11-27T03:25:45;102218.69;;;6.73;100.00
48636;BME280;34429;52.332;5.614;2022-11-27T03:28:14;102211.91;;;6.66;100.00
48636;BME280;34429;52.332;5.614;2022-11-27T03:30:46;102223.03;;;6.76;100.00
48636;BME280;34429;52.332;5.614;2022-11-27T03:33:14;102215.03;;;6.74;100.00
48636;BME280;34429;52.332;5.614;2022-11-27T03:35:42;102210.16;;;6.65;100.00
48636;BME280;34429;52.332;5.614;2022-11-27T03:38:12;102222.69;;;6.64;100.00
48636;BME280;34429;52.332;5.614;2022-11-27T03:40:46;102219.53;;;6.74;100.00
48636;BME280;34429;52.332;5.614;2022-11-27T03:43:22;102209.63;;;6.58;100.00
48636;BME280;34429;52.332;5.614;2022-11-27T03:45:57;102212.00;;;6.64;100.00
48636;BME280;34429;52.332;5.614;2022-11-27T03:48:34;102209.94;;;6.70;100.00
48636;BME280;34429;52.332;5.614;2022-11-27T03:51:10;102212.22;;;6.60;100.00
48636;BME280;34429;52.332;5.614;2022-11-27T03:53:50;102194.03;;;6.66;100.00
48636;BME280;34429;52.332;5.614;2022-11-27T03:56:30;102193.44;;;6.96;100.00
48636;BME280;34429;52.332;5.614;2022-11-27T03:59:02;102189.94;;;6.59;100.00
48636;BME280;34429;52.332;5.614;2022-11-27T04:01:35;102191.38;;;6.66;100.00
48636;BME280;34429;52.332;5.614;2022-11-27T04:04:04;102187.84;;;6.66;100.00
48636;BME280;34429;52.332;5.614;2022-11-27T04:06:32;102195.47;;;6.74;100.00
48636;BME280;34429;52.332;5.614;2022-11-27T04:09:01;102189.41;;;6.70;100.00
48636;BME280;34429;52.332;5.614;2022-11-27T04:11:29;102194.13;;;6.65;100.00
48636;BME280;34429;52.332;5.614;2022-11-27T04:13:57;102178.78;;;6.69;100.00
48636;BME280;34429;52.332;5.614;2022-11-27T04:16:26;102186.97;;;6.65;100.00
48636;BME280;34429;52.332;5.614;2022-11-27T04:18:57;102183.72;;;6.59;100.00
48636;BME280;34429;52.332;5.614;2022-11-27T04:21:25;102181.63;;;6.65;100.00
48636;BME280;34429;52.332;5.614;2022-11-27T04:23:53;102170.84;;;6.67;100.00
48636;BME280;34429;52.332;5.614;2022-11-27T04:26:22;102179.81;;;6.66;100.00
48636;BME280;34429;52.332;5.614;2022-11-27T04:28:50;102172.72;;;6.65;100.00
48636;BME280;34429;52.332;5.614;2022-11-27T04:31:18;102189.00;;;6.60;100.00
48636;BME280;34429;52.332;5.614;2022-11-27T04:33:47;102193.56;;;6.58;100.00
48636;BME280;34429;52.332;5.614;2022-11-27T04:36:18;102193.56;;;6.58;100.00
48636;BME280;34429;52.332;5.614;2022-11-27T04:38:46;102186.47;;;6.57;100.00
48636;BME280;34429;52.332;5.614;2022-11-27T04:41:14;102186.66;;;6.54;100.00
48636;BME280;34429;52.332;5.614;2022-11-27T04:43:42;102177.69;;;6.55;100.00
48636;BME280;34429;52.332;5.614;2022-11-27T04:46:11;102184.75;;;6.56;100.00
48636;BME280;34429;52.332;5.614;2022-11-27T04:48:39;102180.97;;;6.60;100.00
48636;BME280;34429;52.332;5.614;2022-11-27T04:51:07;102177.69;;;6.55;100.00
48636;BME280;34429;52.332;5.614;2022-11-27T04:53:38;102167.84;;;6.56;100.00
48636;BME280;34429;52.332;5.614;2022-11-27T04:56:10;102162.75;;;6.69;100.00
48636;BME280;34429;52.332;5.614;2022-11-27T04:58:38;102152.81;;;6.71;100.00
48636;BME280;34429;52.332;5.614;2022-11-27T05:01:07;102151.47;;;6.62;100.00
48636;BME280;34429;52.332;5.614;2022-11-27T05:03:35;102147.38;;;6.72;100.00
48636;BME280;34429;52.332;5.614;2022-11-27T05:06:04;102140.06;;;6.76;100.00
48636;BME280;34429;52.332;5.614;2022-11-27T05:08:33;102135.91;;;6.70;100.00
48636;BME280;34429;52.332;5.614;2022-11-27T05:11:06;102129.75;;;6.68;100.00
48636;BME280;34429;52.332;5.614;2022-11-27T05:13:35;102126.31;;;6.66;100.00
48636;BME280;34429;52.332;5.614;2022-11-27T05:16:04;102142.50;;;6.63;100.00
48636;BME280;34429;52.332;5.614;2022-11-27T05:18:33;102143.19;;;6.66;100.00
48636;BME280;34429;52.332;5.614;2022-11-27T05:21:03;102140.38;;;6.70;100.00
48636;BME280;34429;52.332;5.614;2022-11-27T05:23:32;102132.81;;;6.78;100.00
48636;BME280;34429;52.332;5.614;2022-11-27T05:26:03;102129.72;;;6.86;100.00
48636;BME280;34429;52.332;5.614;2022-11-27T05:28:32;102128.56;;;6.74;100.00
48636;BME280;34429;52.332;5.614;2022-11-27T05:31:00;102120.28;;;6.78;100.00
48636;BME280;34429;52.332;5.614;2022-11-27T05:33:28;102117.00;;;6.73;100.00
48636;BME280;34429;52.332;5.614;2022-11-27T05:35:57;102107.31;;;6.88;100.00
48636;BME280;34429;52.332;5.614;2022-11-27T05:38:25;102117.06;;;6.89;100.00
48636;BME280;34429;52.332;5.614;2022-11-27T05:40:53;102118.47;;;6.96;100.00
48636;BME280;34429;52.332;5.614;2022-11-27T05:43:24;102104.28;;;6.94;100.00
48636;BME280;34429;52.332;5.614;2022-11-27T05:45:52;102102.84;;;7.05;100.00
48636;BME280;34429;52.332;5.614;2022-11-27T05:48:21;102101.59;;;7.12;100.00
48636;BME280;34429;52.332;5.614;2022-11-27T05:50:49;102091.97;;;7.08;100.00
48636;BME280;34429;52.332;5.614;2022-11-27T05:53:17;102088.28;;;7.10;100.00
48636;BME280;34429;52.332;5.614;2022-11-27T05:55:46;102094.56;;;7.09;100.00
48636;BME280;34429;52.332;5.614;2022-11-27T05:58:14;102091.56;;;7.15;100.00
48636;BME280;34429;52.332;5.614;2022-11-27T06:00:45;102088.28;;;7.10;100.00
48636;BME280;34429;52.332;5.614;2022-11-27T06:03:14;102091.81;;;7.11;100.00
48636;BME280;34429;52.332;5.614;2022-11-27T06:05:42;102097.06;;;7.12;100.00
48636;BME280;34429;52.332;5.614;2022-11-27T06:08:10;102088.97;;;7.14;100.00
48636;BME280;34429;52.332;5.614;2022-11-27T06:10:39;102085.88;;;7.22;100.00
48636;BME280;34429;52.332;5.614;2022-11-27T06:13:07;102064.44;;;7.06;100.00
48636;BME280;34429;52.332;5.614;2022-11-27T06:15:36;102089.22;;;7.09;100.00
48636;BME280;34429;52.332;5.614;2022-11-27T06:18:08;102085.34;;;7.15;100.00
48636;BME280;34429;52.332;5.614;2022-11-27T06:20:37;102075.44;;;7.17;100.00
48636;BME280;34429;52.332;5.614;2022-11-27T06:23:06;102078.97;;;7.17;100.00
48636;BME280;34429;52.332;5.614;2022-11-27T06:25:34;102080.63;;;7.20;100.00
48636;BME280;34429;52.332;5.614;2022-11-27T06:28:03;102081.28;;;7.08;100.00
48636;BME280;34429;52.332;5.614;2022-11-27T06:30:31;102074.91;;;7.10;100.00
48636;BME280;34429;52.332;5.614;2022-11-27T06:32:59;102082.25;;;7.07;100.00
48636;BME280;34429;52.332;5.614;2022-11-27T06:35:30;102063.63;;;7.04;100.00
48636;BME280;34429;52.332;5.614;2022-11-27T06:37:59;102071.53;;;7.07;100.00
48636;BME280;34429;52.332;5.614;2022-11-27T06:40:27;102071.91;;;6.99;100.00
48636;BME280;34429;52.332;5.614;2022-11-27T06:42:55;102079.03;;;7.00;100.00
48636;BME280;34429;52.332;5.614;2022-11-27T06:45:24;102078.34;;;6.96;100.00
48636;BME280;34429;52.332;5.614;2022-11-27T06:47:52;102069.59;;;6.93;100.00
48636;BME280;34429;52.332;5.614;2022-11-27T06:50:20;102084.06;;;6.89;100.00
48636;BME280;34429;52.332;5.614;2022-11-27T06:52:53;102066.53;;;6.83;100.00
48636;BME280;34429;52.332;5.614;2022-11-27T06:55:21;102075.97;;;6.90;100.00
48636;BME280;34429;52.332;5.614;2022-11-27T06:57:50;102073.88;;;6.79;100.00
48636;BME280;34429;52.332;5.614;2022-11-27T07:00:19;102080.28;;;6.93;100.00
48636;BME280;34429;52.332;5.614;2022-11-27T07:02:52;102073.00;;;6.79;100.00
48636;BME280;34429;52.332;5.614;2022-11-27T07:05:22;102074.97;;;6.75;100.00
48636;BME280;34429;52.332;5.614;2022-11-27T07:07:54;102065.19;;;6.74;100.00
48636;BME280;34429;52.332;5.614;2022-11-27T07:10:25;102061.06;;;6.69;100.00
48636;BME280;34429;52.332;5.614;2022-11-27T07:12:53;102060.31;;;6.82;100.00
48636;BME280;34429;52.332;5.614;2022-11-27T07:15:22;102054.44;;;6.76;100.00
48636;BME280;34429;52.332;5.614;2022-11-27T07:17:50;102040.28;;;6.74;100.00
48636;BME280;34429;52.332;5.614;2022-11-27T07:20:18;102042.19;;;6.72;100.00
48636;BME280;34429;52.332;5.614;2022-11-27T07:22:46;102039.34;;;6.75;100.00
48636;BME280;34429;52.332;5.614;2022-11-27T07:25:17;102031.31;;;6.75;100.00
48636;BME280;34429;52.332;5.614;2022-11-27T07:27:48;102025.88;;;6.76;100.00
48636;BME280;34429;52.332;5.614;2022-11-27T07:30:16;102022.56;;;6.71;100.00
48636;BME280;34429;52.332;5.614;2022-11-27T07:32:45;102021.88;;;6.68;100.00
48636;BME280;34429;52.332;5.614;2022-11-27T07:35:13;102014.94;;;6.63;100.00
48636;BME280;34429;52.332;5.614;2022-11-27T07:37:42;102007.66;;;6.67;100.00
48636;BME280;34429;52.332;5.614;2022-11-27T07:40:11;102010.16;;;6.70;100.00
48636;BME280;34429;52.332;5.614;2022-11-27T07:42:42;102004.09;;;6.66;100.00
48636;BME280;34429;52.332;5.614;2022-11-27T07:45:13;101998.91;;;6.63;100.00
48636;BME280;34429;52.332;5.614;2022-11-27T07:47:41;102007.09;;;6.60;100.00
48636;BME280;34429;52.332;5.614;2022-11-27T07:50:11;101996.16;;;6.65;100.00
48636;BME280;34429;52.332;5.614;2022-11-27T07:52:39;102001.50;;;6.65;100.00
48636;BME280;34429;52.332;5.614;2022-11-27T07:55:07;101993.56;;;6.63;100.00
48636;BME280;34429;52.332;5.614;2022-11-27T07:57:36;101994.91;;;6.55;100.00
48636;BME280;34429;52.332;5.614;2022-11-27T08:00:08;102005.19;;;6.62;100.00
48636;BME280;34429;52.332;5.614;2022-11-27T08:02:36;102004.88;;;6.69;100.00
48636;BME280;34429;52.332;5.614;2022-11-27T08:05:06;102000.47;;;6.68;100.00
48636;BME280;34429;52.332;5.614;2022-11-27T08:07:34;101997.88;;;6.66;100.00
48636;BME280;34429;52.332;5.614;2022-11-27T08:10:03;102004.41;;;6.60;100.00
48636;BME280;34429;52.332;5.614;2022-11-27T08:12:32;101999.44;;;6.70;100.00
48636;BME280;34429;52.332;5.614;2022-11-27T08:15:00;101987.94;;;6.68;100.00
48636;BME280;34429;52.332;5.614;2022-11-27T08:17:32;101993.81;;;6.59;100.00
48636;BME280;34429;52.332;5.614;2022-11-27T08:20:01;101992.31;;;6.53;100.00
48636;BME280;34429;52.332;5.614;2022-11-27T08:22:29;101995.50;;;6.44;100.00
48636;BME280;34429;52.332;5.614;2022-11-27T08:24:57;101992.47;;;6.50;100.00
48636;BME280;34429;52.332;5.614;2022-11-27T08:27:26;101999.16;;;6.59;100.00
48636;BME280;34429;52.332;5.614;2022-11-27T08:29:54;101995.63;;;6.58;100.00
48636;BME280;34429;52.332;5.614;2022-11-27T08:32:22;101998.47;;;6.55;100.00
48636;BME280;34429;52.332;5.614;2022-11-27T08:34:53;101986.63;;;6.43;100.00
48636;BME280;34429;52.332;5.614;2022-11-27T08:37:21;101978.19;;;6.51;100.00
48636;BME280;34429;52.332;5.614;2022-11-27T08:39:50;101982.41;;;6.55;100.00
48636;BME280;34429;52.332;5.614;2022-11-27T08:42:18;101980.50;;;6.57;100.00
48636;BME280;34429;52.332;5.614;2022-11-27T08:44:46;101990.19;;;6.60;100.00
48636;BME280;34429;52.332;5.614;2022-11-27T08:47:15;101982.84;;;6.63;100.00
48636;BME280;34429;52.332;5.614;2022-11-27T08:49:43;101995.38;;;6.63;100.00
48636;BME280;34429;52.332;5.614;2022-11-27T08:52:14;101990.28;;;6.58;100.00
48636;BME280;34429;52.332;5.614;2022-11-27T08:54:42;101996.56;;;6.57;100.00
48636;BME280;34429;52.332;5.614;2022-11-27T08:57:13;102005.69;;;6.53;100.00
48636;BME280;34429;52.332;5.614;2022-11-27T08:59:41;102008.19;;;6.56;100.00
48636;BME280;34429;52.332;5.614;2022-11-27T09:02:10;101989.94;;;6.64;100.00
48636;BME280;34429;52.332;5.614;2022-11-27T09:04:39;101995.63;;;6.58;100.00
48636;BME280;34429;52.332;5.614;2022-11-27T09:07:07;101993.38;;;6.66;100.00
48636;BME280;34429;52.332;5.614;2022-11-27T09:09:41;102002.50;;;6.62;100.00
48636;BME280;34429;52.332;5.614;2022-11-27T09:12:09;102005.59;;;6.55;100.00
48636;BME280;34429;52.332;5.614;2022-11-27T09:14:38;101995.63;;;6.58;100.00
48636;BME280;34429;52.332;5.614;2022-11-27T09:17:06;102003.00;;;6.53;100.00
48636;BME280;34429;52.332;5.614;2022-11-27T09:19:34;101991.81;;;6.62;100.00
48636;BME280;34429;52.332;5.614;2022-11-27T09:22:03;101990.88;;;6.63;100.00
48636;BME280;34429;52.332;5.614;2022-11-27T09:24:31;101993.31;;;6.68;100.00
48636;BME280;34429;52.332;5.614;2022-11-27T09:27:02;101988.28;;;6.62;100.00
48636;BME280;34429;52.332;5.614;2022-11-27T09:29:32;101984.50;;;6.66;100.00
48636;BME280;34429;52.332;5.614;2022-11-27T09:32:01;101977.25;;;6.68;100.00
48636;BME280;34429;52.332;5.614;2022-11-27T09:34:29;101985.66;;;6.78;100.00
48636;BME280;34429;52.332;5.614;2022-11-27T09:36:58;101978.56;;;6.77;100.00
48636;BME280;34429;52.332;5.614;2022-11-27T09:39:27;101971.34;;;6.79;100.00
48636;BME280;34429;52.332;5.614;2022-11-27T09:41:59;101969.59;;;6.78;100.00
48636;BME280;34429;52.332;5.614;2022-11-27T09:44:34;101964.91;;;6.81;100.00
48636;BME280;34429;52.332;5.614;2022-11-27T09:47:12;101967.19;;;6.89;100.00
48636;BME280;34429;52.332;5.614;2022-11-27T09:49:45;101968.72;;;6.93;100.00
48636;BME280;34429;52.332;5.614;2022-11-27T09:52:20;101963.66;;;7.05;100.00
48636;BME280;34429;52.332;5.614;2022-11-27T09:54:55;101961.91;;;7.04;100.00
48636;BME280;34429;52.332;5.614;2022-11-27T09:57:28;101955.34;;;7.09;100.00
48636;BME280;34429;52.332;5.614;2022-11-27T10:00:03;101965.28;;;6.91;100.00
48636;BME280;34429;52.332;5.614;2022-11-27T10:02:34;101945.94;;;7.02;100.00
48636;BME280;34429;52.332;5.614;2022-11-27T10:05:09;101948.13;;;6.95;100.00
48636;BME280;34429;52.332;5.614;2022-11-27T10:07:49;101940.50;;;7.19;100.00
48636;BME280;34429;52.332;5.614;2022-11-27T10:10:32;101940.75;;;7.15;100.00
48636;BME280;34429;52.332;5.614;2022-11-27T10:13:09;101928.50;;;7.27;100.00
48636;BME280;34429;52.332;5.614;2022-11-27T10:15:48;101929.09;;;7.32;100.00
48636;BME280;34429;52.332;5.614;2022-11-27T10:18:27;101929.34;;;7.27;100.00
48636;BME280;34429;52.332;5.614;2022-11-27T10:21:00;101926.44;;;7.32;100.00
48636;BME280;34429;52.332;5.614;2022-11-27T10:23:42;101921.50;;;7.24;100.00
48636;BME280;34429;52.332;5.614;2022-11-27T10:26:17;101927.13;;;7.19;100.00
48636;BME280;34429;52.332;5.614;2022-11-27T10:28:53;101929.34;;;7.27;100.00
48636;BME280;34429;52.332;5.614;2022-11-27T10:31:33;101922.47;;;7.23;100.00
48636;BME280;34429;52.332;5.614;2022-11-27T10:34:04;101907.34;;;7.22;100.00
48636;BME280;34429;52.332;5.614;2022-11-27T10:36:37;101914.16;;;7.28;100.00
48636;BME280;34429;52.332;5.614;2022-11-27T10:39:12;101906.66;;;7.18;100.00
48636;BME280;34429;52.332;5.614;2022-11-27T10:41:47;101906.56;;;7.20;100.00
48636;BME280;34429;52.332;5.614;2022-11-27T10:44:26;101898.75;;;7.31;100.00
48636;BME280;34429;52.332;5.614;2022-11-27T10:47:01;101898.41;;;7.37;100.00
48636;BME280;34429;52.332;5.614;2022-11-27T10:49:31;101896.31;;;7.43;100.00
48636;BME280;34429;52.332;5.614;2022-11-27T10:52:01;101889.41;;;7.39;100.00
48636;BME280;34429;52.332;5.614;2022-11-27T10:54:33;101889.41;;;7.39;100.00
48636;BME280;34429;52.332;5.614;2022-11-27T10:57:30;101887.53;;;7.41;100.00
48636;BME280;34429;52.332;5.614;2022-11-27T11:00:09;101888.84;;;7.33;100.00
48636;BME280;34429;52.332;5.614;2022-11-27T11:02:42;101877.84;;;7.38;100.00
48636;BME280;34429;52.332;5.614;2022-11-27T11:05:12;101884.22;;;7.51;100.00
48636;BME280;34429;52.332;5.614;2022-11-27T11:07:41;101872.03;;;7.46;100.00
48636;BME280;34429;52.332;5.614;2022-11-27T11:10:23;101860.00;;;7.53;100.00
48636;BME280;34429;52.332;5.614;2022-11-27T11:13:08;101855.03;;;7.47;100.00
48636;BME280;34429;52.332;5.614;2022-11-27T11:15:49;101852.53;;;7.58;100.00
48636;BME280;34429;52.332;5.614;2022-11-27T11:18:22;101849.84;;;7.44;100.00
48636;BME280;34429;52.332;5.614;2022-11-27T11:20:53;101840.84;;;7.45;100.00
48636;BME280;34429;52.332;5.614;2022-11-27T11:23:32;101838.19;;;7.59;100.00
48636;BME280;34429;52.332;5.614;2022-11-27T11:26:02;101841.75;;;7.60;100.00
48636;BME280;34429;52.332;5.614;2022-11-27T11:28:39;101834.94;;;7.54;100.00
48636;BME280;34429;52.332;5.614;2022-11-27T11:31:15;101836.03;;;7.66;100.00
48636;BME280;34429;52.332;5.614;2022-11-27T11:33:55;101826.25;;;7.65;100.00
48636;BME280;34429;52.332;5.614;2022-11-27T11:36:25;101813.44;;;7.70;100.00
48636;BME280;34429;52.332;5.614;2022-11-27T11:38:54;101815.84;;;7.75;100.00
48636;BME280;34429;52.332;5.614;2022-11-27T11:41:22;101808.47;;;7.93;100.00
48636;BME280;34429;52.332;5.614;2022-11-27T11:43:56;101804.94;;;7.92;100.00
48636;BME280;34429;52.332;5.614;2022-11-27T11:46:27;101801.38;;;7.92;100.00
48636;BME280;34429;52.332;5.614;2022-11-27T11:49:03;101796.72;;;7.95;100.00
48636;BME280;34429;52.332;5.614;2022-11-27T11:51:53;101797.28;;;8.00;100.00
48636;BME280;34429;52.332;5.614;2022-11-27T11:54:36;101795.63;;;8.12;100.00
48636;BME280;34429;52.332;5.614;2022-11-27T11:57:22;101784.81;;;7.99;100.00
48636;BME280;34429;52.332;5.614;2022-11-27T11:59:59;101792.66;;;8.17;100.00
48636;BME280;34429;52.332;5.614;2022-11-27T12:02:43;101791.16;;;8.13;100.00
48636;BME280;34429;52.332;5.614;2022-11-27T12:05:25;101791.72;;;8.18;100.00
48636;BME280;34429;52.332;5.614;2022-11-27T12:08:20;101791.50;;;8.21;100.00
48636;BME280;34429;52.332;5.614;2022-11-27T12:10:59;101778.69;;;8.26;100.00
48636;BME280;34429;52.332;5.614;2022-11-27T12:13:41;101779.19;;;8.04;100.00
48636;BME280;34429;52.332;5.614;2022-11-27T12:16:18;101781.38;;;8.12;100.00
48636;BME280;34429;52.332;5.614;2022-11-27T12:19:03;101767.47;;;8.19;100.00
48636;BME280;34429;52.332;5.614;2022-11-27T12:21:46;101763.47;;;7.98;100.00
48636;BME280;34429;52.332;5.614;2022-11-27T12:24:27;101756.66;;;8.06;100.00
48636;BME280;34429;52.332;5.614;2022-11-27T12:27:09;101742.09;;;8.11;100.00
48636;BME280;34429;52.332;5.614;2022-11-27T12:30:02;101729.78;;;7.94;100.00
48636;BME280;34429;52.332;5.614;2022-11-27T12:32:50;101723.34;;;7.96;100.00
48636;BME280;34429;52.332;5.614;2022-11-27T12:35:30;101724.59;;;8.05;100.00
48636;BME280;34429;52.332;5.614;2022-11-27T12:38:10;101707.16;;;8.12;100.00
48636;BME280;34429;52.332;5.614;2022-11-27T12:41:08;101706.91;;;8.02;100.00
48636;BME280;34429;52.332;5.614;2022-11-27T12:43:42;101705.25;;;8.14;100.00
48636;BME280;34429;52.332;5.614;2022-11-27T12:46:15;101698.59;;;8.20;100.00
48636;BME280;34429;52.332;5.614;2022-11-27T12:48:49;101705.50;;;8.10;100.00
48636;BME280;34429;52.332;5.614;2022-11-27T12:51:22;101708.56;;;8.18;100.00
48636;BME280;34429;52.332;5.614;2022-11-27T12:53:58;101701.59;;;8.15;100.00
48636;BME280;34429;52.332;5.614;2022-11-27T12:56:32;101707.34;;;8.09;100.00
48636;BME280;34429;52.332;5.614;2022-11-27T12:59:10;101695.19;;;8.03;100.00
48636;BME280;34429;52.332;5.614;2022-11-27T13:01:42;101681.88;;;8.02;100.00
48636;BME280;34429;52.332;5.614;2022-11-27T13:04:18;101677.75;;;8.11;100.00
48636;BME280;34429;52.332;5.614;2022-11-27T13:06:53;101677.22;;;8.05;100.00
48636;BME280;34429;52.332;5.614;2022-11-27T13:09:34;101677.97;;;8.07;100.00
48636;BME280;34429;52.332;5.614;2022-11-27T13:12:06;101685.53;;;8.01;100.00
48636;BME280;34429;52.332;5.614;2022-11-27T13:14:37;101692.16;;;7.95;100.00
48636;BME280;34429;52.332;5.614;2022-11-27T13:17:10;101674.53;;;8.05;100.00